Time;durP1;ratioP1;P1;durP2;ratioP2;P2;SDS_P1;SDS_P2;PMS_P1;PMS_P2;Temp;Humidity;BMP_temperature;BMP_pressure;BME280_temperature;BME280_humidity;BME280_pressure;Samples;Min_cycle;Max_cycle;Signal;HPM_P1;HPM_P2
2023/08/24 00:01:24;;;;;;;3.03;2.45;;;17.10;97.20;17.10;100910.00;;;;4910623;28;110032;-66
2023/08/24 00:03:50;;;;;;;3.35;2.95;;;17.00;97.60;17.10;100904.00;;;;4911844;28;107343;-65
2023/08/24 00:06:16;;;;;;;3.15;2.80;;;16.90;97.50;17.00;100902.00;;;;4913569;28;121462;-65
2023/08/24 00:08:43;;;;;;;7.05;3.88;;;16.90;97.60;17.00;100896.00;;;;4916476;28;93541;-66
2023/08/24 00:11:11;;;;;;;4.13;2.97;;;16.90;97.70;16.90;100900.00;;;;4916275;28;94391;-66
2023/08/24 00:13:37;;;;;;;3.45;2.90;;;16.80;97.90;16.80;100896.00;;;;4915779;28;93937;-65
2023/08/24 00:16:04;;;;;;;3.58;3.00;;;16.80;98.10;16.80;100908.00;;;;4913601;28;123782;-65
2023/08/24 00:18:29;;;;;;;3.13;2.70;;;16.70;98.20;16.80;100906.00;;;;4916306;28;94132;-65
2023/08/24 00:20:56;;;;;;;4.68;3.33;;;16.70;98.40;16.80;100908.00;;;;4914797;28;110402;-64
2023/08/24 00:23:21;;;;;;;3.63;2.75;;;16.70;98.50;16.80;100914.00;;;;4913739;28;93024;-64
2023/08/24 00:25:47;;;;;;;2.80;2.60;;;16.70;98.60;16.70;100913.00;;;;4913072;28;122102;-65
2023/08/24 00:28:12;;;;;;;3.35;3.05;;;16.70;98.90;16.70;100906.00;;;;4912788;28;122654;-65
2023/08/24 00:30:38;;;;;;;2.90;2.70;;;16.60;99.00;16.70;100906.00;;;;4914010;28;92286;-65
2023/08/24 00:33:04;;;;;;;4.30;2.90;;;16.60;99.10;16.60;100910.00;;;;4911218;28;109648;-66
2023/08/24 00:35:30;;;;;;;3.17;2.88;;;16.60;99.20;16.60;100912.00;;;;4912812;28;93829;-65
2023/08/24 00:37:56;;;;;;;3.33;3.03;;;16.50;99.30;16.60;100917.00;;;;4910692;28;97429;-65
2023/08/24 00:40:22;;;;;;;4.68;3.25;;;16.50;99.50;16.60;100915.00;;;;4914338;28;109869;-65
2023/08/24 00:42:48;;;;;;;3.15;2.58;;;16.50;99.60;16.60;100914.00;;;;4917386;28;93204;-65
2023/08/24 00:45:14;;;;;;;3.28;2.97;;;16.50;99.70;16.60;100909.00;;;;4915046;28;113360;-65
2023/08/24 00:47:43;;;;;;;4.50;3.40;;;16.50;99.80;16.60;100904.00;;;;4914572;28;93172;-65
2023/08/24 00:50:09;;;;;;;3.40;3.10;;;16.50;99.90;16.60;100901.00;;;;4928550;28;93276;-64
2023/08/24 00:52:41;;;;;;;4.03;3.63;;;16.50;99.90;16.50;100904.00;;;;4914384;28;94272;-66
2023/08/24 00:55:07;;;;;;;4.95;3.88;;;16.50;99.90;16.50;100894.00;;;;4916136;28;114841;-66
2023/08/24 00:57:35;;;;;;;3.80;3.35;;;16.40;99.90;16.50;100896.00;;;;4915034;28;109960;-66
2023/08/24 01:00:11;;;;;;;3.42;2.75;;;16.40;99.90;16.40;100903.00;;;;4916406;28;92807;-66
2023/08/24 01:02:38;;;;;;;4.47;4.03;;;16.40;99.90;16.40;100890.00;;;;4915668;28;93768;-66
2023/08/24 01:05:06;;;;;;;4.00;3.58;;;16.30;99.90;16.40;100900.00;;;;4915147;28;93247;-66
2023/08/24 01:07:38;;;;;;;4.10;3.20;;;16.30;99.90;16.30;100893.00;;;;4915747;28;93791;-65
2023/08/24 01:10:06;;;;;;;3.15;2.92;;;16.30;99.90;16.30;100891.00;;;;4916339;28;92763;-65
2023/08/24 01:12:50;;;;;;;2.97;2.45;;;16.20;99.90;16.30;100891.00;;;;4930355;28;92979;-65
2023/08/24 01:16:09;;;;;;;3.20;2.55;;;16.20;99.90;16.20;100900.00;;;;4916513;28;92846;-66
2023/08/24 01:18:37;;;;;;;3.05;2.70;;;16.20;99.90;16.30;100902.00;;;;4914691;28;92948;-66
2023/08/24 01:21:03;;;;;;;3.55;2.78;;;16.20;99.90;16.30;100900.00;;;;4917692;28;92080;-65
2023/08/24 01:23:59;;;;;;;4.90;2.70;;;16.20;99.90;16.20;100901.00;;;;4917914;28;93299;-65
2023/08/24 01:26:26;;;;;;;4.07;3.08;;;16.20;99.90;16.20;100892.00;;;;4919786;28;94184;-67
2023/08/24 01:28:52;;;;;;;5.50;3.17;;;16.20;99.90;16.20;100890.00;;;;4929039;28;94058;-66
2023/08/24 01:31:18;;;;;;;3.60;3.10;;;16.10;99.90;16.10;100895.00;;;;4912708;28;92858;-67
2023/08/24 01:33:45;;;;;;;4.28;3.85;;;16.10;99.90;16.10;100898.00;;;;4912803;28;93042;-66
2023/08/24 01:36:14;;;;;;;3.83;3.45;;;16.10;99.90;16.10;100900.00;;;;4913678;28;94864;-66
2023/08/24 01:38:40;;;;;;;3.90;3.55;;;16.00;99.90;16.10;100899.00;;;;4912843;28;92998;-66
2023/08/24 01:41:28;;;;;;;4.05;3.72;;;16.00;99.90;16.00;100899.00;;;;4917490;28;109203;-66
2023/08/24 01:43:55;;;;;;;4.68;3.95;;;16.00;99.90;16.00;100904.00;;;;4904692;28;98512;-66
2023/08/24 01:46:22;;;;;;;4.30;3.90;;;15.90;99.90;16.00;100894.00;;;;4913254;28;120745;-66
2023/08/24 01:48:49;;;;;;;5.32;3.13;;;15.90;99.90;15.90;100883.00;;;;4914425;28;114713;-66
2023/08/24 01:51:16;;;;;;;4.57;3.58;;;15.90;99.90;15.90;100895.00;;;;4912384;28;109907;-66
2023/08/24 01:53:42;;;;;;;5.50;2.85;;;15.90;99.90;15.90;100895.00;;;;4906936;28;98153;-66
2023/08/24 01:56:13;;;;;;;4.45;3.38;;;15.90;99.90;15.90;100894.00;;;;4916116;28;122303;-66
2023/08/24 01:58:39;;;;;;;2.67;2.47;;;15.90;99.90;15.90;100889.00;;;;4911887;28;109500;-65
2023/08/24 02:01:05;;;;;;;3.50;3.20;;;15.80;99.90;15.90;100889.00;;;;4917189;28;93132;-66
2023/08/24 02:03:31;;;;;;;2.88;2.65;;;15.80;99.90;15.90;100888.00;;;;4914961;28;93352;-65
2023/08/24 02:05:57;;;;;;;3.92;3.40;;;15.80;99.90;15.90;100890.00;;;;4920272;28;102512;-65
2023/08/24 02:08:23;;;;;;;3.15;2.90;;;15.80;99.90;15.90;100897.00;;;;4914563;28;122298;-65
2023/08/24 02:10:48;;;;;;;5.32;3.50;;;15.90;99.90;15.90;100891.00;;;;4914189;28;110008;-65
2023/08/24 02:13:14;;;;;;;4.57;3.30;;;15.80;99.90;15.80;100880.00;;;;4918121;28;92842;-65
2023/08/24 02:15:40;;;;;;;2.67;2.47;;;15.80;99.90;15.80;100880.00;;;;4916671;28;122380;-66
2023/08/24 02:18:07;;;;;;;4.22;3.33;;;15.80;99.90;15.80;100878.00;;;;4916579;28;94038;-66
2023/08/24 02:20:37;;;;;;;5.00;4.32;;;15.70;99.90;15.70;100873.00;;;;4915269;28;93130;-66
2023/08/24 02:23:04;;;;;;;3.42;3.10;;;15.70;99.90;15.70;100869.00;;;;4915205;28;101216;-66
2023/08/24 02:25:29;;;;;;;3.88;2.72;;;15.70;99.90;15.70;100875.00;;;;4915968;28;93782;-65
2023/08/24 02:27:55;;;;;;;3.38;3.08;;;15.70;99.90;15.70;100873.00;;;;4915628;28;102524;-66
2023/08/24 02:30:21;;;;;;;3.60;2.83;;;15.60;99.90;15.70;100874.00;;;;4913274;28;96260;-65
2023/08/24 02:32:46;;;;;;;4.07;3.17;;;15.60;99.90;15.70;100873.00;;;;4912692;28;109142;-65
2023/08/24 02:35:12;;;;;;;3.10;2.90;;;15.60;99.90;15.70;100872.00;;;;4910890;28;123744;-65
2023/08/24 02:37:38;;;;;;;4.13;3.03;;;15.60;99.90;15.60;100866.00;;;;4912029;28;117421;-65
2023/08/24 02:40:05;;;;;;;5.15;4.45;;;15.60;99.90;15.60;100870.00;;;;4913668;28;93289;-65
2023/08/24 02:42:32;;;;;;;4.43;3.55;;;15.60;99.90;15.60;100871.00;;;;4912764;28;94362;-65
2023/08/24 02:44:58;;;;;;;3.92;3.08;;;15.60;99.90;15.60;100873.00;;;;4917639;28;99292;-65
2023/08/24 02:47:24;;;;;;;3.45;3.15;;;15.60;99.90;15.60;100874.00;;;;4916285;28;93319;-65
2023/08/24 02:49:49;;;;;;;4.72;3.20;;;15.50;99.90;15.50;100874.00;;;;4914099;28;109523;-65
2023/08/24 02:52:15;;;;;;;4.97;3.30;;;15.50;99.90;15.50;100877.00;;;;4914542;28;92790;-65
2023/08/24 02:54:41;;;;;;;3.55;3.17;;;15.50;99.90;15.50;100878.00;;;;4914869;28;93457;-66
2023/08/24 02:57:07;;;;;;;4.80;3.22;;;15.40;99.90;15.40;100877.00;;;;4912387;28;96924;-66
2023/08/24 02:59:33;;;;;;;4.38;3.35;;;15.40;99.90;15.40;100876.00;;;;4908993;28;108418;-65
2023/08/24 03:01:58;;;;;;;4.38;3.97;;;15.40;99.90;15.40;100876.00;;;;4911484;28;108318;-67
2023/08/24 03:04:24;;;;;;;4.35;3.97;;;15.30;99.90;15.40;100873.00;;;;4913928;28;122996;-66
2023/08/24 03:06:50;;;;;;;4.32;3.92;;;15.30;99.90;15.30;100869.00;;;;4912363;28;94068;-66
2023/08/24 03:09:15;;;;;;;3.83;3.28;;;15.30;99.90;15.30;100870.00;;;;4914390;28;93077;-66
2023/08/24 03:11:41;;;;;;;4.00;3.65;;;15.30;99.90;15.30;100875.00;;;;4913102;28;108646;-65
2023/08/24 03:14:07;;;;;;;3.45;3.15;;;15.20;99.90;15.20;100867.00;;;;4914833;28;122673;-66
2023/08/24 03:16:33;;;;;;;10.68;3.67;;;15.20;99.90;15.20;100872.00;;;;4912679;28;122249;-66
2023/08/24 03:18:59;;;;;;;6.03;4.80;;;15.10;99.90;15.10;100870.00;;;;4914559;28;93139;-66
2023/08/24 03:21:25;;;;;;;6.28;3.60;;;15.10;99.90;15.10;100870.00;;;;4914280;28;107924;-66
2023/08/24 03:23:50;;;;;;;4.35;3.78;;;15.10;99.90;15.10;100865.00;;;;4916085;28;108375;-66
2023/08/24 03:26:16;;;;;;;4.35;3.95;;;15.00;99.90;15.00;100866.00;;;;4912201;28;121202;-66
2023/08/24 03:28:43;;;;;;;4.20;3.67;;;15.00;99.90;15.00;100865.00;;;;4913666;28;96513;-65
2023/08/24 03:31:08;;;;;;;3.88;3.10;;;14.90;99.90;15.00;100859.00;;;;4914320;28;94024;-65
2023/08/24 03:33:34;;;;;;;5.47;3.50;;;14.90;99.90;14.90;100874.00;;;;4915753;28;123043;-66
2023/08/24 03:36:01;;;;;;;5.63;3.53;;;14.90;99.90;14.90;100867.00;;;;4914422;28;93324;-67
2023/08/24 03:38:27;;;;;;;4.32;3.92;;;14.80;99.90;14.90;100867.00;;;;4917377;28;92890;-66
2023/08/24 03:41:01;;;;;;;4.28;3.88;;;14.80;99.90;14.80;100869.00;;;;4916046;28;107779;-67
2023/08/24 03:43:27;;;;;;;6.20;4.93;;;14.80;99.90;14.80;100872.00;;;;4911885;28;93203;-66
2023/08/24 03:45:52;;;;;;;4.80;3.97;;;14.80;99.90;14.80;100873.00;;;;4914223;28;116015;-65
2023/08/24 03:48:18;;;;;;;3.70;3.30;;;14.80;99.90;14.80;100874.00;;;;4915871;28;109483;-66
2023/08/24 03:50:44;;;;;;;3.70;3.03;;;14.80;99.90;14.80;100876.00;;;;4913238;28;108668;-65
2023/08/24 03:53:09;;;;;;;3.85;3.45;;;14.70;99.90;14.80;100869.00;;;;4912946;28;121972;-66
2023/08/24 03:55:35;;;;;;;4.72;4.18;;;14.70;99.90;14.80;100861.00;;;;4915507;28;94258;-65
2023/08/24 03:58:01;;;;;;;4.90;4.07;;;14.70;99.90;14.80;100868.00;;;;4915069;28;93096;-65
2023/08/24 04:00:26;;;;;;;4.07;3.70;;;14.80;99.90;14.80;100866.00;;;;4914355;28;109283;-65
2023/08/24 04:02:52;;;;;;;4.35;3.30;;;14.80;99.90;14.80;100861.00;;;;4912923;28;122109;-65
2023/08/24 04:05:18;;;;;;;4.45;4.05;;;14.80;99.90;14.80;100864.00;;;;4914739;28;122350;-65
2023/08/24 04:07:43;;;;;;;5.63;4.63;;;14.80;99.90;14.80;100867.00;;;;4914136;28;98655;-64
2023/08/24 04:10:11;;;;;;;6.20;4.20;;;14.70;99.90;14.80;100866.00;;;;4916713;28;93416;-65
2023/08/24 04:12:36;;;;;;;4.57;3.53;;;14.80;99.90;14.80;100864.00;;;;4918699;28;92447;-66
2023/08/24 04:15:03;;;;;;;5.20;4.28;;;14.70;99.90;14.80;100863.00;;;;4915794;28;92871;-65
2023/08/24 04:17:28;;;;;;;4.38;3.67;;;14.70;99.90;14.80;100858.00;;;;4913308;28;92947;-65
2023/08/24 04:20:00;;;;;;;3.42;3.13;;;14.70;99.90;14.80;100875.00;;;;4910741;28;108330;-67
2023/08/24 04:22:26;;;;;;;8.13;3.97;;;14.80;99.90;14.80;100875.00;;;;4912124;28;123172;-65
2023/08/24 04:24:51;;;;;;;4.00;3.08;;;14.70;99.90;14.80;100871.00;;;;4915636;28;102801;-66
2023/08/24 04:27:17;;;;;;;4.80;2.80;;;14.70;99.90;14.80;100873.00;;;;4913757;28;92955;-66
2023/08/24 04:29:43;;;;;;;3.22;2.92;;;14.70;99.90;14.80;100869.00;;;;4916656;28;92866;-66
2023/08/24 04:32:08;;;;;;;6.53;4.73;;;14.70;99.90;14.80;100867.00;;;;4917184;28;122063;-66
2023/08/24 04:34:34;;;;;;;3.97;3.58;;;14.70;99.90;14.80;100857.00;;;;4919580;28;121435;-66
2023/08/24 04:37:01;;;;;;;5.88;3.42;;;14.70;99.90;14.70;100857.00;;;;4914986;28;101501;-65
2023/08/24 04:39:26;;;;;;;3.47;3.13;;;14.70;99.90;14.80;100853.00;;;;4914865;28;92752;-66
2023/08/24 04:41:52;;;;;;;4.13;3.53;;;14.70;99.90;14.80;100860.00;;;;4914497;28;120873;-66
2023/08/24 04:44:18;;;;;;;6.75;3.38;;;14.70;99.90;14.80;100867.00;;;;4914805;28;121928;-65
2023/08/24 04:46:43;;;;;;;3.67;3.30;;;14.70;99.90;14.80;100869.00;;;;4916866;28;93128;-65
2023/08/24 04:49:09;;;;;;;4.85;3.85;;;14.70;99.90;14.80;100866.00;;;;4916965;28;108994;-65
2023/08/24 04:51:35;;;;;;;4.50;3.60;;;14.80;99.90;14.90;100866.00;;;;4915996;28;122623;-65
2023/08/24 04:54:00;;;;;;;5.45;3.72;;;14.80;99.90;15.00;100862.00;;;;4914661;28;122056;-65
2023/08/24 04:56:26;;;;;;;6.65;3.20;;;14.90;99.90;15.00;100856.00;;;;4917386;28;107180;-65
2023/08/24 04:59:00;;;;;;;6.30;3.97;;;15.00;99.90;15.10;100865.00;;;;4934151;28;92929;-65
2023/08/24 05:01:26;;;;;;;4.43;4.03;;;15.10;99.90;15.20;100872.00;;;;4933659;28;93427;-65
2023/08/24 05:03:53;;;;;;;3.45;3.03;;;15.10;99.90;15.30;100865.00;;;;4931109;28;115604;-65
2023/08/24 05:06:22;;;;;;;3.55;3.28;;;15.20;99.90;15.50;100880.00;;;;4931567;28;95857;-65
2023/08/24 05:08:48;;;;;;;5.47;3.78;;;15.40;99.90;15.60;100873.00;;;;4929702;28;93804;-65
2023/08/24 05:11:17;;;;;;;6.88;3.83;;;15.50;99.90;15.80;100879.00;;;;4932944;28;123452;-66
2023/08/24 05:13:43;;;;;;;3.60;3.20;;;15.60;99.90;15.90;100877.00;;;;4933910;28;92936;-65
2023/08/24 05:16:13;;;;;;;4.43;3.58;;;15.80;99.90;16.10;100875.00;;;;4932013;28;92726;-66
2023/08/24 05:18:39;;;;;;;4.95;3.97;;;15.90;99.90;16.20;100867.00;;;;4933767;28;103571;-65
2023/08/24 05:21:06;;;;;;;4.07;3.50;;;16.10;99.90;16.30;100863.00;;;;4933794;28;94299;-65
2023/08/24 05:23:32;;;;;;;4.78;3.50;;;16.20;99.90;16.50;100863.00;;;;4933152;28;92931;-65
2023/08/24 05:25:59;;;;;;;3.58;3.22;;;16.30;99.90;16.60;100863.00;;;;4935512;28;92190;-66
2023/08/24 05:28:26;;;;;;;9.85;3.08;;;16.50;99.90;16.80;100875.00;;;;4931558;28;92841;-66
2023/08/24 05:30:53;;;;;;;3.10;2.90;;;16.60;99.90;17.00;100864.00;;;;4933269;28;94078;-65
2023/08/24 05:33:21;;;;;;;3.15;2.85;;;16.80;99.90;17.20;100854.00;;;;4930809;28;94271;-65
2023/08/24 05:35:47;;;;;;;7.25;3.20;;;17.00;99.90;17.50;100870.00;;;;4931943;28;93141;-65
2023/08/24 05:38:14;;;;;;;5.90;2.75;;;17.30;99.90;17.80;100870.00;;;;4932808;28;98957;-66
2023/08/24 05:40:41;;;;;;;3.05;2.83;;;17.50;99.90;18.00;100869.00;;;;4931414;28;109188;-65
2023/08/24 05:43:06;;;;;;;5.40;3.78;;;17.70;99.90;18.20;100866.00;;;;4930123;28;93553;-65
2023/08/24 05:45:32;;;;;;;3.72;3.28;;;18.00;99.90;18.50;100863.00;;;;4929723;28;110930;-65
2023/08/24 05:47:58;;;;;;;3.22;2.65;;;18.30;99.90;18.70;100865.00;;;;4933590;28;93080;-65
2023/08/24 05:50:24;;;;;;;2.90;2.70;;;18.50;99.90;19.00;100862.00;;;;4930711;28;120584;-65
2023/08/24 05:52:50;;;;;;;4.35;2.63;;;18.70;99.90;19.20;100868.00;;;;4930401;28;119731;-66
2023/08/24 05:55:16;;;;;;;3.03;1.50;;;19.00;99.90;19.50;100857.00;;;;4935549;28;109252;-66
2023/08/24 05:57:42;;;;;;;4.00;3.13;;;19.20;99.90;19.70;100857.00;;;;4932747;28;93955;-67
2023/08/24 06:00:09;;;;;;;3.65;2.67;;;19.40;99.90;19.90;100852.00;;;;4930002;28;122713;-66
2023/08/24 06:02:36;;;;;;;2.63;2.42;;;19.60;99.90;20.00;100860.00;;;;4933025;28;93811;-65
2023/08/24 06:05:02;;;;;;;3.58;2.38;;;19.80;99.90;20.20;100876.00;;;;4931152;28;102738;-66
2023/08/24 06:07:29;;;;;;;2.72;2.53;;;19.90;99.90;20.40;100872.00;;;;4932148;28;93081;-66
2023/08/24 06:09:56;;;;;;;2.58;2.33;;;20.10;99.90;20.60;100867.00;;;;4933431;28;93194;-66
2023/08/24 06:12:22;;;;;;;3.35;2.60;;;20.30;99.90;20.80;100865.00;;;;4931345;28;114522;-66
2023/08/24 06:14:47;;;;;;;4.40;3.05;;;20.50;99.90;21.00;100863.00;;;;4935210;28;92265;-66
2023/08/24 06:17:13;;;;;;;3.95;2.80;;;20.80;99.90;21.20;100855.00;;;;4930396;28;107774;-66
2023/08/24 06:19:39;;;;;;;4.90;2.65;;;20.90;99.90;21.40;100857.00;;;;4930717;28;123850;-65
2023/08/24 06:22:05;;;;;;;3.67;2.50;;;21.20;99.60;21.70;100851.00;;;;4931943;28;95706;-65
2023/08/24 06:24:31;;;;;;;3.67;1.98;;;21.40;99.20;21.90;100855.00;;;;4932580;28;93121;-65
2023/08/24 06:26:57;;;;;;;3.08;1.88;;;21.60;98.70;22.20;100854.00;;;;4933100;28;92745;-65
2023/08/24 06:29:22;;;;;;;2.75;1.83;;;21.90;98.10;22.40;100844.00;;;;4929253;28;123237;-66
2023/08/24 06:31:48;;;;;;;2.38;2.17;;;22.10;97.70;22.60;100854.00;;;;4931734;28;121764;-65
2023/08/24 06:34:14;;;;;;;2.30;2.10;;;22.30;97.00;22.70;100860.00;;;;4932188;28;109531;-66
2023/08/24 06:36:39;;;;;;;3.47;2.25;;;22.40;96.20;22.80;100854.00;;;;4934365;28;107779;-65
2023/08/24 06:39:05;;;;;;;2.42;2.22;;;22.60;96.00;23.00;100853.00;;;;4931299;28;108590;-65
2023/08/24 06:41:37;;;;;;;2.53;2.30;;;22.80;95.40;23.20;100855.00;;;;4932034;28;94292;-66
2023/08/24 06:44:02;;;;;;;7.20;2.35;;;22.90;95.20;23.50;100854.00;;;;4929438;28;111499;-66
2023/08/24 06:46:29;;;;;;;4.47;2.17;;;23.10;95.00;23.70;100852.00;;;;4934514;28;93874;-67
2023/08/24 06:48:54;;;;;;;2.92;2.55;;;23.40;94.60;24.00;100861.00;;;;4930838;28;122172;-66
2023/08/24 06:51:20;;;;;;;2.15;1.95;;;23.60;94.30;24.30;100859.00;;;;4930936;28;93236;-66
2023/08/24 06:53:49;;;;;;;5.18;1.92;;;24.00;93.90;24.50;100873.00;;;;4932358;28;93057;-66
2023/08/24 06:56:15;;;;;;;1.80;1.65;;;24.20;93.20;24.80;100859.00;;;;4933951;28;92871;-66
2023/08/24 06:58:40;;;;;;;3.35;1.92;;;24.50;92.60;24.90;100861.00;;;;4929561;28;123929;-65
2023/08/24 07:01:07;;;;;;;2.35;2.15;;;24.60;92.10;25.10;100863.00;;;;4929375;28;113631;-66
2023/08/24 07:03:33;;;;;;;4.05;2.33;;;24.90;91.70;25.40;100871.00;;;;4931165;28;92321;-65
2023/08/24 07:05:59;;;;;;;1.77;1.67;;;25.10;91.40;25.70;100867.00;;;;4932341;28;93177;-66
2023/08/24 07:08:25;;;;;;;2.83;1.92;;;25.40;90.70;25.90;100876.00;;;;4930607;28;121591;-66
2023/08/24 07:10:51;;;;;;;2.65;1.67;;;25.60;90.30;26.20;100871.00;;;;4929003;28;121747;-65
2023/08/24 07:13:16;;;;;;;2.00;1.30;;;25.90;89.70;26.60;100874.00;;;;4930347;28;109971;-66
2023/08/24 07:15:42;;;;;;;3.15;1.60;;;26.30;87.70;26.70;100879.00;;;;4931682;28;93014;-66
2023/08/24 07:18:08;;;;;;;3.42;1.88;;;26.40;86.00;26.80;100876.00;;;;4930949;28;94130;-67
2023/08/24 07:20:35;;;;;;;4.15;1.67;;;26.60;82.90;26.90;100872.00;;;;4932086;28;92998;-66
2023/08/24 07:23:01;;;;;;;3.80;1.92;;;26.70;81.20;26.90;100871.00;;;;4932131;28;97753;-67
2023/08/24 07:25:28;;;;;;;1.65;1.30;;;26.70;79.60;27.00;100882.00;;;;4929989;28;92769;-66
2023/08/24 07:28:00;;;;;;;1.27;1.17;;;26.70;79.30;27.10;100878.00;;;;4932669;28;93153;-67
2023/08/24 07:30:29;;;;;;;3.58;1.38;;;26.90;77.90;27.20;100881.00;;;;4932723;28;92858;-66
2023/08/24 07:33:03;;;;;;;2.65;1.30;;;27.00;77.30;27.30;100869.00;;;;4933431;28;94303;-66
2023/08/24 07:35:28;;;;;;;2.35;1.83;;;27.10;75.80;27.50;100872.00;;;;4936102;28;94172;-67
2023/08/24 07:37:54;;;;;;;1.45;1.35;;;27.20;76.20;27.70;100874.00;;;;4931999;28;122314;-66
2023/08/24 07:40:20;;;;;;;1.20;1.10;;;27.40;75.60;27.90;100868.00;;;;4929875;28;122367;-66
2023/08/24 07:42:53;;;;;;;1.55;1.45;;;27.60;74.10;28.10;100862.00;;;;4930548;28;110464;-65
2023/08/24 07:45:19;;;;;;;1.08;0.98;;;27.80;73.10;28.30;100859.00;;;;4932037;28;93034;-65
2023/08/24 07:47:44;;;;;;;1.15;1.05;;;28.00;72.80;28.50;100857.00;;;;4931317;28;93897;-65
2023/08/24 07:50:11;;;;;;;1.90;1.40;;;28.30;71.60;28.70;100859.00;;;;4930019;28;94379;-65
2023/08/24 07:52:38;;;;;;;1.52;1.42;;;28.50;70.40;28.80;100864.00;;;;4929968;28;110490;-66
2023/08/24 07:55:08;;;;;;;1.58;1.40;;;28.60;68.70;28.90;100872.00;;;;4933793;28;92988;-66
2023/08/24 07:57:34;;;;;;;6.35;1.48;;;28.70;68.80;29.00;100870.00;;;;4932949;28;93087;-67
2023/08/24 08:00:00;;;;;;;1.30;1.13;;;28.80;68.00;29.20;100874.00;;;;4929998;28;114726;-67
2023/08/24 08:02:26;;;;;;;1.92;1.40;;;28.90;66.50;29.30;100870.00;;;;4929019;28;93176;-66
2023/08/24 08:04:58;;;;;;;1.42;1.33;;;29.00;65.60;29.40;100871.00;;;;4931549;28;93121;-66
2023/08/24 08:07:24;;;;;;;2.40;1.40;;;29.20;65.10;29.70;100870.00;;;;4930097;28;94329;-66
2023/08/24 08:09:50;;;;;;;1.58;1.33;;;29.30;64.00;29.90;100876.00;;;;4930574;28;93528;-68
2023/08/24 08:12:16;;;;;;;1.40;1.30;;;29.60;63.30;30.10;100878.00;;;;4928380;28;111192;-66
2023/08/24 08:14:42;;;;;;;1.35;1.25;;;29.80;62.20;30.20;100885.00;;;;4932945;28;107090;-66
2023/08/24 08:17:08;;;;;;;0.95;0.93;;;29.90;61.80;30.50;100877.00;;;;4935433;28;102917;-67
2023/08/24 08:19:35;;;;;;;1.13;0.93;;;30.10;61.00;30.70;100874.00;;;;4933709;28;114795;-68
2023/08/24 08:22:01;;;;;;;3.65;1.48;;;30.40;60.50;31.10;100872.00;;;;4934789;28;92830;-68
2023/08/24 08:24:27;;;;;;;1.77;1.20;;;30.70;59.50;31.30;100875.00;;;;4934861;28;94137;-69
2023/08/24 08:26:53;;;;;;;1.23;0.90;;;31.00;58.50;31.50;100873.00;;;;4933260;28;122314;-69
2023/08/24 08:29:18;;;;;;;2.33;1.15;;;31.20;57.80;31.80;100876.00;;;;4934671;28;121911;-69
2023/08/24 08:31:44;;;;;;;1.45;0.80;;;31.40;57.10;32.00;100890.00;;;;4936399;28;108710;-68
2023/08/24 08:34:09;;;;;;;1.35;1.00;;;31.60;55.90;32.10;100872.00;;;;4934253;28;108831;-67
2023/08/24 08:36:35;;;;;;;1.75;1.27;;;31.80;54.40;32.10;100873.00;;;;4933394;28;122996;-68
2023/08/24 08:39:03;;;;;;;0.93;0.90;;;31.90;53.00;32.00;100864.00;;;;4931328;28;122451;-68
2023/08/24 08:41:38;;;;;;;1.30;1.02;;;31.80;52.00;31.90;100861.00;;;;4936013;28;92158;-68
2023/08/24 08:44:06;;;;;;;0.98;0.80;;;31.70;51.90;32.00;100865.00;;;;4951150;28;94420;-68
2023/08/24 08:46:32;;;;;;;0.70;0.70;;;31.70;52.10;32.00;100866.00;;;;4934309;28;93524;-67
2023/08/24 08:49:00;;;;;;;0.80;0.80;;;31.80;50.40;31.90;100861.00;;;;4934827;28;93795;-69
2023/08/24 08:51:27;;;;;;;1.67;1.20;;;31.70;50.10;31.90;100861.00;;;;4931732;28;112099;-68
2023/08/24 08:53:53;;;;;;;1.73;0.82;;;31.70;50.30;31.90;100859.00;;;;4931309;28;109201;-68
2023/08/24 08:56:19;;;;;;;0.70;0.70;;;31.70;50.60;32.00;100855.00;;;;4930998;28;95513;-68
2023/08/24 08:58:46;;;;;;;0.77;0.77;;;31.70;50.80;32.10;100845.00;;;;4933637;28;114950;-69
2023/08/24 09:01:12;;;;;;;0.70;0.70;;;31.80;50.20;32.20;100835.00;;;;4933450;28;93081;-69
2023/08/24 09:03:39;;;;;;;0.70;0.70;;;31.90;49.20;32.30;100824.00;;;;4933049;28;107919;-68
2023/08/24 09:06:05;;;;;;;1.15;0.68;;;31.90;48.50;32.40;100834.00;;;;4935182;28;93841;-68
2023/08/24 09:08:32;;;;;;;0.95;0.85;;;32.00;48.40;32.30;100828.00;;;;4935467;28;102971;-68
2023/08/24 09:11:00;;;;;;;14.07;0.95;;;32.00;49.30;32.40;100835.00;;;;4932735;28;109969;-68
2023/08/24 09:13:33;;;;;;;0.80;0.80;;;32.00;48.40;32.30;100834.00;;;;4935574;28;93809;-68
2023/08/24 09:16:05;;;;;;;1.02;0.90;;;31.90;48.00;32.30;100835.00;;;;4936177;28;94371;-69
2023/08/24 09:18:39;;;;;;;3.60;1.05;;;32.00;48.70;32.60;100834.00;;;;4932827;28;93470;-68
2023/08/24 09:21:13;;;;;;;4.80;0.90;;;32.10;48.80;32.90;100829.00;;;;4947833;28;93330;-69
2023/08/24 09:23:56;;;;;;;1.30;0.90;;;32.30;48.30;32.90;100820.00;;;;4932292;28;92834;-69
2023/08/24 09:26:34;;;;;;;1.40;0.60;;;32.50;46.50;32.50;100815.00;;;;4932086;28;96674;-69
2023/08/24 09:29:13;;;;;;;1.80;1.10;;;32.20;46.40;32.10;100811.00;;;;4927259;28;92913;-68
2023/08/24 09:31:39;;;;;;;0.98;0.98;;;31.90;47.30;32.00;100818.00;;;;4935109;28;92337;-68
2023/08/24 09:34:06;;;;;;;2.85;0.68;;;31.70;48.10;32.20;100806.00;;;;4931196;28;92985;-69
2023/08/24 09:36:33;;;;;;;0.90;0.70;;;31.70;48.80;32.30;100815.00;;;;4930129;28;103150;-70
2023/08/24 09:39:00;;;;;;;1.08;0.85;;;31.90;48.90;32.50;100812.00;;;;4928015;28;94119;-68
2023/08/24 09:41:50;;;;;;;0.95;0.85;;;31.90;48.30;32.50;100818.00;;;;4932527;28;92841;-70
2023/08/24 09:44:19;;;;;;;1.42;1.00;;;32.00;48.30;32.60;100821.00;;;;4929571;28;93059;-69
2023/08/24 09:46:45;;;;;;;2.45;1.23;;;32.10;48.80;32.60;100815.00;;;;4932502;28;93015;-69
2023/08/24 09:49:11;;;;;;;1.15;1.05;;;32.10;49.00;32.60;100816.00;;;;4932207;28;112488;-68
2023/08/24 09:51:40;;;;;;;2.90;1.27;;;32.20;48.40;32.50;100810.00;;;;4932441;28;112911;-70
2023/08/24 09:54:08;;;;;;;2.40;1.30;;;32.10;47.70;32.10;100803.00;;;;4933865;28;92873;-68
2023/08/24 09:56:41;;;;;;;1.05;0.88;;;31.80;47.90;31.80;100806.00;;;;4931311;28;92193;-68
2023/08/24 09:59:13;;;;;;;1.00;0.90;;;31.60;48.20;31.60;100799.00;;;;4931033;28;94004;-68
2023/08/24 10:01:43;;;;;;;1.85;1.20;;;31.30;49.10;31.60;100799.00;;;;4932821;28;92837;-68
2023/08/24 10:04:11;;;;;;;0.73;0.73;;;31.20;49.70;31.70;100797.00;;;;4930271;28;93992;-68
2023/08/24 10:06:39;;;;;;;1.30;1.17;;;31.30;50.10;31.80;100787.00;;;;4933922;28;93148;-68
2023/08/24 10:09:09;;;;;;;0.77;0.77;;;31.30;50.00;32.00;100785.00;;;;4933127;28;94636;-68
2023/08/24 10:11:50;;;;;;;4.40;1.35;;;31.40;50.00;32.10;100792.00;;;;4933619;28;93000;-68
2023/08/24 10:14:36;;;;;;;1.33;1.00;;;31.60;49.90;32.20;100781.00;;;;4949217;28;100026;-68
2023/08/24 10:17:02;;;;;;;3.10;1.25;;;31.70;49.80;32.40;100770.00;;;;4934386;28;98858;-68
2023/08/24 10:19:29;;;;;;;1.13;1.02;;;31.80;49.60;32.50;100775.00;;;;4930667;28;93690;-68
2023/08/24 10:21:57;;;;;;;0.82;0.82;;;32.00;49.40;32.70;100777.00;;;;4932660;28;92078;-68
2023/08/24 10:24:23;;;;;;;2.15;1.45;;;32.20;49.40;32.70;100777.00;;;;4931937;28;93156;-68
2023/08/24 10:26:50;;;;;;;0.98;0.90;;;32.20;50.10;32.80;100784.00;;;;4931958;28;123050;-69
2023/08/24 10:29:17;;;;;;;2.88;1.40;;;32.20;49.50;32.90;100788.00;;;;4933298;28;99643;-69
2023/08/24 10:31:44;;;;;;;3.38;1.00;;;32.40;49.60;33.00;100795.00;;;;4933182;28;93061;-69
2023/08/24 10:34:10;;;;;;;1.00;0.90;;;32.40;49.60;33.10;100792.00;;;;4925588;28;102520;-70
2023/08/24 10:36:39;;;;;;;1.92;1.40;;;32.50;49.50;33.20;100786.00;;;;4929898;28;122001;-69
2023/08/24 10:39:06;;;;;;;1.67;0.98;;;32.60;49.00;33.30;100786.00;;;;4930085;28;93117;-70
2023/08/24 10:41:52;;;;;;;1.30;1.20;;;32.70;48.90;33.40;100785.00;;;;4926826;28;93118;-68
2023/08/24 10:44:38;;;;;;;2.05;1.30;;;32.80;48.70;33.50;100789.00;;;;4914219;28;94432;-69
2023/08/24 10:47:22;;;;;;;5.40;1.20;;;32.90;48.60;33.50;100780.00;;;;4931976;28;92108;-69